Decoded Metar for UUOB (BELGOROD in RUSSIA) (IATA:N/A) | Meteo·Mobile Aviation Weather
aviador You're here:

UUOB Decoded Metar

BELGOROD in RUSSIA
Report Time2018-12-17 10:30:00
UTC Time2018-12-17 10:46:48
Flight Rules ifr IFR
Wind080° at 6 kt
W.Decomp.*RWY 11: 4.7 kt HW 3.7 kt LCW
W.Rank080° ranks 19
Current wind is below 080° avg. (8.1)
Visibility9000 m
Phenomena:N/A
Clouds:Overcast 005 Hf
Ceiling500 ft
Temp-8°C (ISA -22)
Dew Point-8°C (100% RH)
AAT-13.1°C
QNH1031 hPa
Density Alt-2,507 ft
Elevation735 ft
Report Wrong Elevation
Raw Report
METAR UUOB 171030Z 08003MPS 9000 OVC005 M08/M08 Q1031 R11/810352
NOSIG=

Extra information for UUOB:More info

Metar Taf Metar & Taf Last 4 Metars F.Rules Stats Wind Profile Meteogram Temp Stats Airport Information Weather charts Add Link Nearby VenuesMetar ALERT Operation Metar Decoded Social comments